Roslyn Estates, New York
Current Conditions -  °F | °C
As of 2:51 AM on Monday 24 Nov 2014 (Local Time) from KLGA Reporting Station
Moderate Rain Moderate Rain  
Wind Chill: 57°   Ceiling: 800
Heat Index: 57°   Visibility: 2.5mi
Dew Point: 56°   Wind: 16mph
Humidity: 96%   Direction: 150°SSE
Pressure: 29.84"   Gusts: 22mph
Location:  40.8044°N, 73.641°W
Report Text: KLGA 240751Z 15014G19KT 2 1/2SM RA BR BKN008 BKN014 OVC026 14/13 A2984 RMK AO2 PRESFR SLP104 P0012 T01390133
Loading
Personal Weather Stations






























Interactive Weather Map New forecast layout! Learn more

10-Day Weather Forecast

Advertisements
Track Severe Weather on mobile